createdAt,value
2023-02-22T00:01:07.746Z,64.81
2023-02-22T00:03:36.961Z,64.67
2023-02-22T00:06:05.988Z,64.70
2023-02-22T00:08:36.340Z,64.86
2023-02-22T00:11:08.876Z,64.97
2023-02-22T00:13:38.625Z,64.71
2023-02-22T00:16:07.270Z,64.10
2023-02-22T00:18:38.048Z,63.16
2023-02-22T00:21:10.896Z,62.89
2023-02-22T00:23:49.962Z,62.84
2023-02-22T00:26:23.693Z,62.63
2023-02-22T00:28:53.518Z,62.58
2023-02-22T00:31:22.243Z,62.67
2023-02-22T00:33:51.430Z,62.69
2023-02-22T00:36:20.124Z,62.83
2023-02-22T00:38:48.454Z,62.99
2023-02-22T00:41:18.045Z,63.01
2023-02-22T00:43:49.172Z,62.53
2023-02-22T00:46:17.596Z,62.50
2023-02-22T00:48:46.965Z,62.68
2023-02-22T00:51:15.489Z,62.60
2023-02-22T00:53:44.064Z,62.44
2023-02-22T00:56:12.475Z,62.37
2023-02-22T00:58:40.859Z,62.12
2023-02-22T01:01:09.383Z,61.85
2023-02-22T01:03:41.602Z,61.37
2023-02-22T01:06:10.674Z,60.96
2023-02-22T01:08:39.078Z,60.53
2023-02-22T01:11:07.279Z,60.63
2023-02-22T01:13:35.708Z,60.46
2023-02-22T01:16:05.146Z,60.35
2023-02-22T01:18:33.381Z,60.25
2023-02-22T01:21:03.030Z,60.21
2023-02-22T01:23:31.579Z,60.19
2023-02-22T01:25:59.942Z,60.36
2023-02-22T01:28:30.737Z,60.25
2023-02-22T01:30:59.429Z,60.24
2023-02-22T01:33:28.238Z,60.10
2023-02-22T01:35:56.777Z,60.10
2023-02-22T01:38:25.609Z,60.25
2023-02-22T01:40:56.136Z,60.26
2023-02-22T01:43:28.207Z,59.96
2023-02-22T01:46:03.284Z,59.96
2023-02-22T01:48:44.753Z,59.92
2023-02-22T01:51:22.811Z,59.83
2023-02-22T01:53:55.443Z,59.84
2023-02-22T01:56:24.895Z,59.72
2023-02-22T01:58:57.449Z,59.52
2023-02-22T02:01:25.879Z,59.49
2023-02-22T02:03:58.332Z,59.14
2023-02-22T02:06:28.375Z,58.96
2023-02-22T02:09:11.329Z,58.64
2023-02-22T02:11:41.146Z,58.50
2023-02-22T02:14:10.082Z,58.47
2023-02-22T02:16:50.997Z,58.46
2023-02-22T02:19:44.411Z,58.45
2023-02-22T02:22:42.991Z,58.16
2023-02-22T02:25:31.134Z,58.18
2023-02-22T02:28:27.747Z,57.96
2023-02-22T02:31:17.893Z,57.69
2023-02-22T02:33:59.700Z,56.98
2023-02-22T02:36:35.706Z,56.47
2023-02-22T02:39:30.203Z,55.79
2023-02-22T02:42:04.078Z,55.82
2023-02-22T02:44:50.041Z,55.22
2023-02-22T02:47:22.174Z,54.35
2023-02-22T02:50:10.002Z,53.33
2023-02-22T02:52:38.575Z,52.64
2023-02-22T02:55:11.571Z,52.23
2023-02-22T02:57:42.832Z,52.14
2023-02-22T03:00:24.040Z,52.23
2023-02-22T03:03:02.356Z,52.29
2023-02-22T03:05:49.357Z,52.35
2023-02-22T03:08:26.723Z,52.18
2023-02-22T03:11:15.548Z,52.25
2023-02-22T03:13:55.870Z,52.42
2023-02-22T03:17:06.204Z,52.69
2023-02-22T03:19:38.972Z,53.52
2023-02-22T03:22:11.521Z,53.68
2023-02-22T03:24:56.093Z,53.81
2023-02-22T03:27:44.038Z,53.43
2023-02-22T03:30:38.010Z,53.04
2023-02-22T03:33:20.607Z,53.09
2023-02-22T03:35:58.101Z,53.03
2023-02-22T03:38:28.337Z,53.07
2023-02-22T03:40:59.532Z,52.70
2023-02-22T03:43:30.868Z,52.35
2023-02-22T03:46:01.048Z,52.22
2023-02-22T03:48:46.213Z,52.09
2023-02-22T03:51:17.481Z,52.17
2023-02-22T03:53:48.320Z,52.38
2023-02-22T03:56:36.022Z,52.62
2023-02-22T03:59:09.297Z,52.86
2023-02-22T04:01:37.796Z,53.26
2023-02-22T04:04:07.385Z,53.75
2023-02-22T04:06:38.102Z,54.14
2023-02-22T04:09:08.881Z,54.41
2023-02-22T04:11:37.537Z,54.68
2023-02-22T04:14:06.317Z,54.84
2023-02-22T04:16:35.151Z,54.95
2023-02-22T04:19:07.361Z,55.09
2023-02-22T04:21:36.847Z,55.13
2023-02-22T04:24:06.626Z,55.16
2023-02-22T04:26:35.023Z,55.20
2023-02-22T04:29:04.765Z,55.03
2023-02-22T04:31:39.233Z,55.05
2023-02-22T04:34:08.524Z,55.02
2023-02-22T04:36:42.509Z,55.29
2023-02-22T04:39:11.504Z,55.30
2023-02-22T04:41:39.848Z,55.00
2023-02-22T04:44:09.961Z,54.60
2023-02-22T04:46:38.422Z,54.39
2023-02-22T04:49:10.185Z,54.39
2023-02-22T04:51:41.491Z,54.31
2023-02-22T04:54:17.498Z,54.45
2023-02-22T04:56:48.948Z,54.40
2023-02-22T04:59:23.683Z,54.50
2023-02-22T05:01:58.816Z,54.57
2023-02-22T05:04:27.716Z,54.31
2023-02-22T05:06:56.039Z,54.32
2023-02-22T05:09:24.590Z,54.24
2023-02-22T05:11:54.456Z,54.15
2023-02-22T05:14:22.978Z,54.25
2023-02-22T05:16:52.055Z,54.40
2023-02-22T05:19:20.666Z,54.29
2023-02-22T05:21:48.900Z,54.19
2023-02-22T05:24:17.976Z,54.29
2023-02-22T05:26:46.525Z,53.85
2023-02-22T05:29:15.263Z,53.84
2023-02-22T05:31:44.495Z,53.82
2023-02-22T05:34:14.610Z,53.23
2023-02-22T05:36:43.270Z,52.48
2023-02-22T05:39:12.507Z,52.07
2023-02-22T05:41:41.269Z,52.04
2023-02-22T05:44:09.886Z,51.92
2023-02-22T05:46:39.420Z,51.67
2023-02-22T05:49:07.653Z,51.73
2023-02-22T05:51:36.549Z,51.54
2023-02-22T05:54:05.045Z,51.53
2023-02-22T05:56:33.431Z,51.55
2023-02-22T05:59:01.789Z,51.68
2023-02-22T06:01:32.478Z,51.33
2023-02-22T06:04:00.990Z,51.57
2023-02-22T06:06:29.319Z,51.78
2023-02-22T06:08:57.837Z,51.54
2023-02-22T06:11:26.374Z,52.04
2023-02-22T06:13:59.886Z,51.78
2023-02-22T06:16:28.365Z,51.47
2023-02-22T06:18:56.880Z,51.37
2023-02-22T06:21:25.394Z,51.66
2023-02-22T06:23:54.139Z,51.87
2023-02-22T06:26:23.245Z,51.93
2023-02-22T06:28:52.052Z,52.08
2023-02-22T06:31:20.822Z,52.22
2023-02-22T06:33:49.361Z,52.76
2023-02-22T06:36:17.507Z,52.92
2023-02-22T06:38:45.809Z,52.65
2023-02-22T06:41:16.406Z,52.86
2023-02-22T06:43:47.947Z,52.62
2023-02-22T06:46:16.415Z,52.21
2023-02-22T06:48:44.765Z,51.97
2023-02-22T06:51:13.160Z,51.92
2023-02-22T06:53:41.613Z,51.72
2023-02-22T06:56:09.817Z,51.90
2023-02-22T06:58:38.902Z,51.59
2023-02-22T07:01:08.248Z,51.45
2023-02-22T07:03:36.748Z,51.28
2023-02-22T07:06:06.624Z,50.99
2023-02-22T07:08:38.414Z,50.84
2023-02-22T07:11:07.551Z,51.16
2023-02-22T07:13:37.941Z,51.23
2023-02-22T07:16:09.576Z,51.69
2023-02-22T07:18:38.911Z,51.80
2023-02-22T07:21:07.788Z,51.95
2023-02-22T07:23:36.517Z,51.78
2023-02-22T07:26:05.745Z,51.65
2023-02-22T07:28:33.963Z,51.35
2023-02-22T07:31:02.493Z,51.09
2023-02-22T07:33:31.063Z,50.99
2023-02-22T07:35:59.512Z,51.08
2023-02-22T07:38:28.913Z,51.04
2023-02-22T07:40:58.106Z,50.96
2023-02-22T07:43:29.712Z,51.02
2023-02-22T07:46:10.382Z,51.08
2023-02-22T07:48:59.793Z,51.13
2023-02-22T07:51:45.463Z,50.75
2023-02-22T07:54:34.738Z,50.68
2023-02-22T07:57:36.878Z,50.65
2023-02-22T08:00:27.454Z,50.82
2023-02-22T08:02:56.326Z,50.65
2023-02-22T08:05:25.657Z,50.67
2023-02-22T08:07:54.729Z,50.14
2023-02-22T08:10:24.710Z,50.34
2023-02-22T08:12:54.359Z,50.55
2023-02-22T08:15:26.820Z,50.51
2023-02-22T08:17:57.187Z,50.43
2023-02-22T08:20:25.744Z,50.29
2023-02-22T08:22:55.517Z,50.49
2023-02-22T08:25:25.822Z,50.52
2023-02-22T08:27:59.081Z,50.41
2023-02-22T08:30:28.622Z,50.16
2023-02-22T08:32:58.576Z,49.98
2023-02-22T08:35:27.765Z,49.88
2023-02-22T08:37:58.897Z,50.15
2023-02-22T08:40:28.490Z,49.93
2023-02-22T08:42:57.162Z,50.27
2023-02-22T08:45:25.400Z,49.65
2023-02-22T08:47:53.756Z,49.20
2023-02-22T08:50:28.702Z,48.83
2023-02-22T08:53:01.458Z,48.54
2023-02-22T08:55:34.989Z,48.46
2023-02-22T08:58:04.201Z,48.41
2023-02-22T09:00:33.602Z,47.77
2023-02-22T09:03:06.991Z,46.56
2023-02-22T09:05:35.348Z,45.43
2023-02-22T09:08:04.993Z,45.21
2023-02-22T09:10:34.093Z,45.23
2023-02-22T09:13:07.080Z,45.12
2023-02-22T09:15:36.393Z,44.94
2023-02-22T09:18:05.556Z,44.63
2023-02-22T09:20:36.209Z,44.57
2023-02-22T09:23:05.814Z,44.79
2023-02-22T09:25:41.154Z,44.89
2023-02-22T09:28:11.807Z,44.11
2023-02-22T09:30:40.204Z,43.65
2023-02-22T09:33:14.575Z,43.57
2023-02-22T09:35:46.646Z,43.42
2023-02-22T09:38:21.483Z,43.35
2023-02-22T09:40:54.546Z,43.65
2023-02-22T09:43:40.884Z,43.07
2023-02-22T09:46:42.239Z,42.47
2023-02-22T09:49:32.824Z,43.23
2023-02-22T09:52:07.659Z,43.36
2023-02-22T09:54:53.318Z,43.08
2023-02-22T09:57:48.131Z,42.43
2023-02-22T10:00:33.951Z,42.44
2023-02-22T10:03:36.932Z,42.62
2023-02-22T10:06:10.716Z,42.56
2023-02-22T10:08:39.085Z,42.85
2023-02-22T10:11:35.618Z,42.78
2023-02-22T10:14:26.156Z,42.85
2023-02-22T10:17:13.183Z,42.02
2023-02-22T10:19:45.114Z,41.22
2023-02-22T10:22:28.363Z,40.74
2023-02-22T10:24:59.553Z,40.51
2023-02-22T10:27:34.256Z,40.69
2023-02-22T10:30:24.156Z,40.54
2023-02-22T10:32:58.495Z,40.71
2023-02-22T10:35:28.690Z,40.79
2023-02-22T10:37:59.873Z,40.91
2023-02-22T10:40:34.049Z,40.74
2023-02-22T10:43:06.543Z,40.38
2023-02-22T10:45:34.962Z,40.62
2023-02-22T10:48:11.776Z,40.73
2023-02-22T10:50:41.696Z,40.89
2023-02-22T10:53:18.038Z,40.94
2023-02-22T10:56:08.457Z,40.84
2023-02-22T10:58:48.144Z,41.16
2023-02-22T11:01:31.905Z,40.97
2023-02-22T11:04:11.170Z,41.11
2023-02-22T11:06:41.575Z,41.49
2023-02-22T11:09:18.742Z,41.40
2023-02-22T11:14:31.381Z,41.27
2023-02-22T11:17:01.648Z,41.21
2023-02-22T11:22:53.214Z,41.59
2023-02-22T11:25:48.811Z,41.85
2023-02-22T11:28:31.361Z,42.14
2023-02-22T11:31:10.233Z,41.46
2023-02-22T11:33:39.218Z,41.33
2023-02-22T11:36:09.662Z,41.33
2023-02-22T11:38:39.808Z,41.34
2023-02-22T11:41:15.528Z,41.48
2023-02-22T11:43:45.123Z,41.83
2023-02-22T11:46:22.851Z,41.82
2023-02-22T11:49:11.070Z,41.90
2023-02-22T11:51:53.699Z,41.71
2023-02-22T11:54:41.111Z,41.70
2023-02-22T11:57:37.017Z,42.18
2023-02-22T12:00:39.962Z,42.04
2023-02-22T12:03:33.569Z,42.56
2023-02-22T12:06:34.026Z,42.45
2023-02-22T12:09:33.486Z,42.39
2023-02-22T12:12:15.736Z,42.12
2023-02-22T12:15:05.616Z,42.14
2023-02-22T12:18:00.057Z,42.33
2023-02-22T12:20:52.376Z,42.35
2023-02-22T12:23:23.334Z,42.55
2023-02-22T12:26:34.284Z,42.58
2023-02-22T12:29:25.283Z,42.77
2023-02-22T12:32:00.813Z,42.48
2023-02-22T12:34:59.873Z,42.47
2023-02-22T12:37:50.719Z,42.32
2023-02-22T12:40:27.885Z,42.02
2023-02-22T12:43:41.460Z,42.37
2023-02-22T12:46:31.450Z,42.16
2023-02-22T12:49:13.874Z,42.46
2023-02-22T12:52:21.183Z,42.12
2023-02-22T12:55:11.137Z,41.77
2023-02-22T12:57:54.830Z,42.04
2023-02-22T13:00:39.270Z,42.17
2023-02-22T13:03:28.382Z,42.24
2023-02-22T13:06:25.213Z,42.19
2023-02-22T13:09:16.059Z,42.13
2023-02-22T13:12:03.240Z,42.28
2023-02-22T13:14:36.257Z,42.27
2023-02-22T13:17:10.312Z,42.19
2023-02-22T13:19:55.036Z,42.41
2023-02-22T13:22:31.435Z,42.15
2023-02-22T13:25:30.941Z,41.95
2023-02-22T13:29:05.420Z,42.50
2023-02-22T13:32:12.633Z,42.76
2023-02-22T13:35:02.644Z,42.76
2023-02-22T13:38:09.146Z,42.96
2023-02-22T13:40:59.399Z,43.24
2023-02-22T13:43:34.226Z,43.53
2023-02-22T13:46:12.859Z,43.81
2023-02-22T13:49:06.790Z,44.05
2023-02-22T13:51:55.342Z,44.05
2023-02-22T13:54:38.322Z,44.01
2023-02-22T13:57:18.726Z,44.10
2023-02-22T13:59:47.568Z,43.87
2023-02-22T14:02:58.174Z,43.96
2023-02-22T14:05:50.056Z,44.23
2023-02-22T14:08:22.759Z,44.21
2023-02-22T14:10:58.265Z,44.33
2023-02-22T14:13:33.455Z,44.60
2023-02-22T14:16:16.922Z,44.59
2023-02-22T14:18:46.948Z,44.63
2023-02-22T14:21:21.918Z,44.94
2023-02-22T14:23:51.645Z,45.20
2023-02-22T14:26:34.026Z,45.41
2023-02-22T14:29:08.056Z,45.11
2023-02-22T14:31:46.782Z,45.25
2023-02-22T14:34:33.982Z,45.39
2023-02-22T14:37:10.300Z,45.64
2023-02-22T14:39:46.211Z,45.47
2023-02-22T14:42:22.470Z,45.48
2023-02-22T14:44:57.755Z,45.43
2023-02-22T14:48:15.717Z,45.41
2023-02-22T14:50:49.771Z,45.48
2023-02-22T14:53:41.731Z,45.53
2023-02-22T14:56:24.853Z,45.84
2023-02-22T14:58:59.697Z,45.76
2023-02-22T15:01:47.439Z,46.04
2023-02-22T15:04:25.833Z,46.16
2023-02-22T15:06:55.761Z,46.34
2023-02-22T15:09:28.480Z,46.44
2023-02-22T15:12:08.901Z,46.28
2023-02-22T15:14:39.102Z,46.43
2023-02-22T15:17:20.601Z,46.49
2023-02-22T15:19:49.109Z,46.79
2023-02-22T15:22:22.545Z,47.03
2023-02-22T15:25:02.090Z,46.93
2023-02-22T15:27:30.622Z,46.90
2023-02-22T15:30:05.005Z,47.13
2023-02-22T15:32:36.856Z,47.33
2023-02-22T15:35:14.131Z,47.46
2023-02-22T15:37:46.756Z,47.58
2023-02-22T15:40:17.849Z,47.44
2023-02-22T15:42:53.180Z,47.90
2023-02-22T15:45:22.278Z,47.91
2023-02-22T15:47:50.632Z,48.05
2023-02-22T15:50:21.645Z,47.87
2023-02-22T15:52:58.370Z,47.83
2023-02-22T15:55:37.267Z,47.84
2023-02-22T15:58:29.107Z,48.03
2023-02-22T16:01:14.373Z,48.10
2023-02-22T16:03:47.915Z,48.34
2023-02-22T16:06:38.057Z,48.47
2023-02-22T16:09:17.579Z,48.59
2023-02-22T16:11:47.673Z,48.81
2023-02-22T16:14:28.982Z,48.99
2023-02-22T16:17:13.576Z,48.96
2023-02-22T16:19:42.836Z,49.05
2023-02-22T16:22:36.382Z,49.21
2023-02-22T16:25:25.404Z,49.09
2023-02-22T16:27:56.075Z,49.35
2023-02-22T16:30:32.686Z,49.55
2023-02-22T16:33:05.800Z,49.73
2023-02-22T16:35:35.817Z,49.96
2023-02-22T16:38:05.620Z,50.10
2023-02-22T16:40:35.498Z,50.34
2023-02-22T16:43:06.549Z,50.53
2023-02-22T16:45:36.302Z,50.68
2023-02-22T16:48:21.944Z,50.88
2023-02-22T16:50:53.726Z,50.98
2023-02-22T16:53:24.028Z,51.10
2023-02-22T16:55:58.169Z,51.23
2023-02-22T16:58:34.495Z,51.53
2023-02-22T17:01:02.990Z,51.74
2023-02-22T17:03:31.546Z,51.65
2023-02-22T17:06:00.284Z,51.72
2023-02-22T17:08:28.879Z,51.92
2023-02-22T17:11:03.309Z,51.86
2023-02-22T17:13:32.245Z,51.88
2023-02-22T17:16:00.607Z,52.00
2023-02-22T17:18:34.382Z,52.19
2023-02-22T17:21:03.739Z,52.28
2023-02-22T17:23:33.122Z,52.30
2023-02-22T17:26:04.751Z,52.40
2023-02-22T17:28:33.292Z,52.53
2023-02-22T17:31:02.314Z,52.60
2023-02-22T17:33:33.174Z,52.84
2023-02-22T17:36:08.653Z,53.05
2023-02-22T17:38:39.631Z,53.07
2023-02-22T17:41:08.001Z,53.11
2023-02-22T17:43:38.727Z,53.24
2023-02-22T17:46:10.904Z,53.12
2023-02-22T17:48:39.954Z,53.12
2023-02-22T17:51:09.813Z,52.99
2023-02-22T17:53:38.726Z,53.06
2023-02-22T17:56:08.685Z,52.88
2023-02-22T17:58:39.666Z,52.88
2023-02-22T18:01:08.119Z,52.93
2023-02-22T18:03:39.688Z,52.89
2023-02-22T18:06:08.822Z,52.72
2023-02-22T18:08:39.334Z,52.88
2023-02-22T18:11:07.879Z,52.96
2023-02-22T18:13:36.664Z,53.05
2023-02-22T18:16:10.349Z,53.04
2023-02-22T18:18:40.444Z,53.10
2023-02-22T18:21:08.627Z,53.09
2023-02-22T18:23:36.845Z,53.41
2023-02-22T18:26:11.058Z,53.38
2023-02-22T18:28:39.764Z,53.23
2023-02-22T18:31:15.020Z,53.05
2023-02-22T18:33:49.390Z,53.13
2023-02-22T18:36:23.428Z,53.04
2023-02-22T18:38:53.226Z,53.28
2023-02-22T18:41:29.048Z,53.09
2023-02-22T18:44:00.685Z,52.58
2023-02-22T18:46:31.613Z,52.20
2023-02-22T18:49:01.543Z,52.02
2023-02-22T18:51:35.723Z,51.70
2023-02-22T18:54:06.472Z,51.66
2023-02-22T18:56:35.730Z,51.45
2023-02-22T18:59:05.452Z,51.42
2023-02-22T19:01:42.289Z,51.31
2023-02-22T19:04:14.877Z,51.48
2023-02-22T19:06:46.170Z,51.67
2023-02-22T19:09:14.588Z,51.33
2023-02-22T19:11:49.556Z,51.31
2023-02-22T19:14:20.100Z,51.34
2023-02-22T19:17:05.506Z,51.17
2023-02-22T19:19:40.211Z,51.12
2023-02-22T19:22:19.291Z,51.11
2023-02-22T19:24:51.857Z,51.32
2023-02-22T19:27:20.905Z,51.04
2023-02-22T19:29:58.440Z,51.17
2023-02-22T19:32:33.731Z,51.14
2023-02-22T19:35:07.639Z,51.05
2023-02-22T19:37:37.155Z,50.98
2023-02-22T19:40:11.971Z,50.47
2023-02-22T19:42:52.657Z,50.07
2023-02-22T19:45:41.991Z,50.03
2023-02-22T19:48:11.310Z,50.00
2023-02-22T19:50:51.793Z,50.10
2023-02-22T19:53:21.598Z,50.27
2023-02-22T19:55:58.205Z,50.25
2023-02-22T19:58:38.322Z,50.39
2023-02-22T20:01:24.406Z,50.24
2023-02-22T20:04:11.754Z,49.26
2023-02-22T20:06:58.082Z,48.74
2023-02-22T20:12:43.076Z,48.70
2023-02-22T20:15:13.494Z,48.65
2023-02-22T20:17:42.704Z,48.78
2023-02-22T20:20:13.250Z,49.01
2023-02-22T20:22:41.611Z,49.32
2023-02-22T20:25:10.346Z,49.63
2023-02-22T20:27:39.035Z,49.82
2023-02-22T20:30:10.649Z,50.18
2023-02-22T20:32:40.062Z,50.57
2023-02-22T20:35:10.371Z,50.51
2023-02-22T20:37:42.814Z,50.55
2023-02-22T20:40:11.365Z,50.84
2023-02-22T20:42:41.194Z,51.04
2023-02-22T20:45:11.898Z,50.96
2023-02-22T20:47:41.323Z,51.26
2023-02-22T20:50:10.299Z,51.12
2023-02-22T20:52:39.397Z,51.27
2023-02-22T20:55:11.709Z,51.36
2023-02-22T20:57:40.320Z,51.29
2023-02-22T21:00:10.762Z,51.31
2023-02-22T21:02:39.038Z,51.41
2023-02-22T21:05:07.504Z,51.36
2023-02-22T21:07:36.184Z,51.24
2023-02-22T21:10:06.843Z,51.11
2023-02-22T21:12:35.667Z,50.94
2023-02-22T21:15:04.269Z,50.79
2023-02-22T21:17:32.707Z,50.82
2023-02-22T21:20:03.937Z,50.55
2023-02-22T21:22:34.048Z,50.50
2023-02-22T21:25:02.709Z,50.33
2023-02-22T21:27:32.851Z,50.24
2023-02-22T21:30:01.090Z,50.26
2023-02-22T21:32:29.606Z,50.17
2023-02-22T21:34:57.945Z,49.87
2023-02-22T21:37:26.343Z,49.63
2023-02-22T21:39:54.733Z,49.28
2023-02-22T21:42:22.958Z,49.03
2023-02-22T21:44:56.289Z,48.80
2023-02-22T21:47:24.694Z,48.81
2023-02-22T21:49:53.393Z,48.97
2023-02-22T21:52:21.791Z,49.28
2023-02-22T21:54:51.766Z,49.29
2023-02-22T21:57:20.259Z,49.33
2023-02-22T21:59:48.722Z,49.54
2023-02-22T22:02:17.342Z,49.56
2023-02-22T22:04:46.158Z,49.50
2023-02-22T22:07:18.629Z,49.94
2023-02-22T22:09:48.815Z,50.07
2023-02-22T22:12:25.941Z,50.28
2023-02-22T22:14:56.509Z,50.35
2023-02-22T22:17:25.387Z,50.61
2023-02-22T22:20:50.793Z,50.78
2023-02-22T22:24:37.257Z,51.06
2023-02-22T22:28:20.725Z,51.13
2023-02-22T22:32:04.593Z,51.19
2023-02-22T22:35:52.698Z,51.21
2023-02-22T22:39:36.260Z,51.02
2023-02-22T22:43:19.953Z,50.90
2023-02-22T22:47:03.752Z,50.94
2023-02-22T22:50:47.080Z,50.77
2023-02-22T22:54:33.035Z,50.47
2023-02-22T22:58:16.601Z,50.32
2023-02-22T23:02:05.757Z,50.16
2023-02-22T23:05:49.109Z,50.01
2023-02-22T23:09:32.806Z,49.11
2023-02-22T23:13:16.870Z,47.59
2023-02-22T23:17:00.587Z,46.19
2023-02-22T23:19:47.491Z,45.31
2023-02-22T23:22:15.999Z,45.18
2023-02-22T23:24:47.046Z,45.11
2023-02-22T23:27:15.629Z,45.10
2023-02-22T23:29:47.202Z,44.91
2023-02-22T23:32:15.863Z,44.65
2023-02-22T23:34:45.194Z,44.67
2023-02-22T23:37:14.373Z,44.72
2023-02-22T23:39:42.937Z,44.81
2023-02-22T23:42:16.963Z,45.08
2023-02-22T23:44:46.511Z,45.23
2023-02-22T23:47:16.320Z,45.34
2023-02-22T23:49:49.655Z,45.66
2023-02-22T23:52:24.477Z,45.97
2023-02-22T23:54:54.313Z,46.05
2023-02-22T23:57:24.248Z,46.24
2023-02-22T23:59:52.386Z,46.68
